Time;durP1;ratioP1;P1;durP2;ratioP2;P2;SDS_P1;SDS_P2;PMS_P1;PMS_P2;Temp;Humidity;BMP_temperature;BMP_pressure;BME280_temperature;BME280_humidity;BME280_pressure;Samples;Min_cycle;Max_cycle;Signal;HPM_P1;HPM_P2
2022/12/01 00:00:47;;;;;;;96.45;38.95;;;5.70;99.90;;;;;;5011384;28;20338;-76
2022/12/01 00:03:12;;;;;;;95.65;38.67;;;5.80;99.90;;;;;;5013702;28;20046;-76
2022/12/01 00:05:38;;;;;;;99.18;41.15;;;5.70;99.90;;;;;;5024646;28;20556;-76
2022/12/01 00:08:04;;;;;;;95.45;38.80;;;5.80;99.90;;;;;;5016900;28;20387;-76
2022/12/01 00:10:32;;;;;;;86.05;37.55;;;5.70;99.90;;;;;;5025099;28;20043;-77
2022/12/01 00:13:00;;;;;;;91.57;38.70;;;5.70;99.90;;;;;;5017619;28;20510;-75
2022/12/01 00:15:29;;;;;;;84.43;36.92;;;5.70;99.90;;;;;;5023546;28;20417;-75
2022/12/01 00:17:56;;;;;;;94.90;39.97;;;5.70;99.90;;;;;;5016648;28;20099;-75
2022/12/01 00:20:22;;;;;;;87.20;38.67;;;5.70;99.90;;;;;;5022694;28;20030;-76
2022/12/01 00:22:48;;;;;;;103.18;40.58;;;5.70;99.90;;;;;;5020715;28;20041;-75
2022/12/01 00:25:16;;;;;;;99.93;38.22;;;5.70;99.90;;;;;;5022880;28;20128;-76
2022/12/01 00:27:45;;;;;;;96.97;38.95;;;5.70;99.90;;;;;;5017332;28;20053;-76
2022/12/01 00:30:12;;;;;;;95.53;40.50;;;5.80;99.90;;;;;;5012136;28;20052;-76
2022/12/01 00:32:38;;;;;;;96.22;40.03;;;5.70;99.90;;;;;;5006313;28;20046;-76
2022/12/01 00:35:04;;;;;;;86.45;38.15;;;5.70;99.90;;;;;;5008167;28;20186;-75
2022/12/01 00:37:31;;;;;;;93.63;37.78;;;5.70;99.90;;;;;;5028413;28;20048;-74
2022/12/01 00:39:58;;;;;;;96.10;40.30;;;5.70;99.90;;;;;;5024356;28;20061;-76
2022/12/01 00:42:24;;;;;;;98.00;38.92;;;5.90;99.90;;;;;;5020051;28;20045;-75
2022/12/01 00:44:50;;;;;;;97.65;39.38;;;5.70;99.90;;;;;;5016005;28;20041;-76
2022/12/01 00:47:15;;;;;;;97.55;38.75;;;5.70;99.90;;;;;;5027269;28;20423;-76
2022/12/01 00:49:44;;;;;;;89.13;38.80;;;5.70;99.90;;;;;;5016460;28;20053;-76
2022/12/01 00:52:10;;;;;;;88.72;36.85;;;5.90;99.90;;;;;;5004705;28;20384;-76
2022/12/01 00:54:36;;;;;;;92.40;39.67;;;5.70;99.90;;;;;;5021306;28;20050;-76
2022/12/01 00:57:02;;;;;;;93.18;38.97;;;5.70;99.90;;;;;;5017443;28;20546;-76
2022/12/01 00:59:28;;;;;;;96.30;38.88;;;5.70;99.90;;;;;;5003211;28;20068;-76
2022/12/01 01:01:54;;;;;;;96.05;39.85;;;5.70;99.90;;;;;;5001692;28;20767;-76
2022/12/01 01:04:19;;;;;;;102.88;41.00;;;5.70;99.90;;;;;;5020434;28;20073;-76
2022/12/01 01:06:45;;;;;;;94.22;38.70;;;5.60;99.90;;;;;;5000663;28;20081;-76
2022/12/01 01:09:12;;;;;;;96.53;40.05;;;5.70;99.90;;;;;;5017703;28;20053;-76
2022/12/01 01:11:38;;;;;;;101.57;39.63;;;6.00;99.90;;;;;;5008442;28;20042;-76
2022/12/01 01:14:05;;;;;;;102.45;41.33;;;5.70;99.90;;;;;;5019577;28;20049;-75
2022/12/01 01:16:31;;;;;;;101.25;39.53;;;6.00;99.90;;;;;;5000071;28;20080;-78
2022/12/01 01:18:57;;;;;;;100.60;40.45;;;5.60;99.90;;;;;;5020362;28;20072;-78
2022/12/01 01:21:25;;;;;;;104.53;42.35;;;5.70;99.90;;;;;;5015077;28;20045;-76
2022/12/01 01:23:51;;;;;;;105.18;42.17;;;5.60;99.90;;;;;;4994770;28;21426;-76
2022/12/01 01:26:26;;;;;;;101.80;41.72;;;5.60;99.90;;;;;;5010380;28;20422;-76
2022/12/01 01:28:56;;;;;;;103.95;41.70;;;5.60;99.90;;;;;;4994247;28;20046;-75
2022/12/01 01:31:24;;;;;;;102.93;41.08;;;5.60;99.90;;;;;;5013778;28;20057;-76
2022/12/01 01:33:50;;;;;;;103.50;43.05;;;6.10;99.90;;;;;;5017979;28;20105;-75
2022/12/01 01:36:16;;;;;;;91.00;40.28;;;5.60;99.90;;;;;;4999371;28;20479;-76
2022/12/01 01:38:42;;;;;;;108.75;41.22;;;5.60;99.90;;;;;;5019027;28;20494;-76
2022/12/01 01:41:08;;;;;;;99.95;41.45;;;5.60;99.90;;;;;;5017546;28;20050;-75
2022/12/01 01:43:45;;;;;;;109.60;43.30;;;5.50;99.90;;;;;;5009064;28;20037;-76
2022/12/01 01:46:32;;;;;;;105.20;40.75;;;5.60;99.90;;;;;;5015731;28;20103;-75
2022/12/01 01:49:06;;;;;;;109.90;42.80;;;5.60;99.90;;;;;;5019265;28;20053;-75
2022/12/01 01:51:40;;;;;;;114.68;43.03;;;5.80;99.90;;;;;;5013324;28;20037;-75
2022/12/01 01:54:24;;;;;;;108.53;43.63;;;5.60;99.90;;;;;;4994569;28;20443;-75
2022/12/01 01:56:51;;;;;;;107.88;44.17;;;5.60;99.90;;;;;;5015746;28;20487;-77
2022/12/01 01:59:23;;;;;;;100.82;41.63;;;5.60;99.90;;;;;;5013559;28;20428;-76
2022/12/01 02:01:56;;;;;;;115.78;42.75;;;5.60;99.90;;;;;;5017253;28;20044;-77
2022/12/01 02:04:24;;;;;;;100.38;42.75;;;5.60;99.90;;;;;;4997766;28;20057;-77
2022/12/01 02:06:49;;;;;;;100.20;41.97;;;5.60;99.90;;;;;;5019727;28;20046;-76
2022/12/01 02:09:15;;;;;;;103.20;41.13;;;5.60;99.90;;;;;;5011182;28;20542;-76
2022/12/01 02:11:54;;;;;;;103.18;42.15;;;5.60;99.90;;;;;;5017622;28;21230;-77
2022/12/01 02:14:36;;;;;;;109.32;44.15;;;5.50;99.90;;;;;;5014065;28;20070;-77
2022/12/01 02:17:28;;;;;;;106.90;43.15;;;5.60;99.90;;;;;;5015592;28;20684;-77
2022/12/01 02:20:05;;;;;;;94.85;39.17;;;5.60;99.90;;;;;;5001150;28;20144;-72
2022/12/01 02:22:45;;;;;;;102.50;40.35;;;5.60;99.90;;;;;;5016813;28;20049;-72
2022/12/01 02:25:25;;;;;;;94.83;38.73;;;5.60;99.90;;;;;;5012488;28;20604;-72
2022/12/01 02:28:13;;;;;;;95.10;40.55;;;5.50;99.90;;;;;;5013429;28;20288;-72
2022/12/01 02:30:51;;;;;;;86.78;37.17;;;5.60;99.90;;;;;;4995805;28;20124;-72
2022/12/01 02:33:40;;;;;;;90.60;38.55;;;5.80;99.90;;;;;;5015078;28;20037;-72
2022/12/01 02:36:44;;;;;;;95.93;40.40;;;5.60;99.90;;;;;;5020540;28;20737;-72
2022/12/01 02:39:27;;;;;;;96.70;40.05;;;5.60;99.90;;;;;;5003356;28;20064;-72
2022/12/01 02:42:03;;;;;;;96.20;39.88;;;5.60;99.90;;;;;;5017198;28;20414;-73
2022/12/01 02:44:34;;;;;;;102.55;40.85;;;5.60;99.90;;;;;;5031208;28;20042;-73
2022/12/01 02:47:10;;;;;;;98.22;41.40;;;5.60;99.90;;;;;;5032613;28;20517;-72
2022/12/01 02:49:40;;;;;;;93.40;39.75;;;6.00;99.90;;;;;;5008460;28;20546;-72
2022/12/01 02:52:07;;;;;;;95.13;40.60;;;5.60;99.90;;;;;;5016775;28;20049;-72
2022/12/01 02:54:33;;;;;;;100.13;41.22;;;5.60;99.90;;;;;;5017662;28;20397;-72
2022/12/01 02:56:59;;;;;;;98.10;40.28;;;5.70;99.90;;;;;;4999463;28;20380;-72
2022/12/01 02:59:24;;;;;;;97.90;40.45;;;5.60;99.90;;;;;;5025046;28;20095;-72
2022/12/01 03:02:03;;;;;;;96.53;39.83;;;5.60;99.90;;;;;;5021991;28;20556;-73
2022/12/01 03:05:02;;;;;;;95.05;39.47;;;5.60;99.90;;;;;;5045219;28;20029;-74
2022/12/01 03:07:34;;;;;;;91.70;38.70;;;5.60;99.90;;;;;;5044787;28;20497;-71
2022/12/01 03:10:15;;;;;;;95.53;40.03;;;5.60;99.90;;;;;;5035461;28;20041;-71
2022/12/01 03:13:05;;;;;;;90.53;39.33;;;5.60;99.90;;;;;;5020758;28;20048;-71
2022/12/01 03:15:59;;;;;;;91.47;39.58;;;5.60;99.90;;;;;;5036522;28;20045;-71
2022/12/01 03:18:42;;;;;;;98.93;40.28;;;5.60;99.90;;;;;;5021279;28;20044;-71
2022/12/01 03:21:19;;;;;;;97.80;40.08;;;5.60;99.90;;;;;;5036144;28;20060;-72
2022/12/01 03:23:49;;;;;;;98.75;39.97;;;5.60;99.90;;;;;;5032178;28;20049;-71
2022/12/01 03:26:19;;;;;;;96.55;39.75;;;5.60;99.90;;;;;;5016384;28;20849;-71
2022/12/01 03:28:59;;;;;;;96.50;39.58;;;5.50;99.90;;;;;;5020438;28;20717;-75
2022/12/01 03:31:30;;;;;;;94.85;39.25;;;5.50;99.90;;;;;;5023171;28;20052;-75
2022/12/01 03:34:10;;;;;;;105.60;43.58;;;5.50;99.90;;;;;;5023130;28;20422;-76
2022/12/01 03:36:46;;;;;;;96.38;40.10;;;5.50;99.90;;;;;;5038207;28;20053;-75
2022/12/01 03:39:18;;;;;;;98.32;40.80;;;5.60;99.90;;;;;;5023507;28;20133;-75
2022/12/01 03:42:06;;;;;;;93.93;39.28;;;5.50;99.90;;;;;;5019016;28;20044;-75
2022/12/01 03:44:40;;;;;;;94.72;40.50;;;5.50;99.90;;;;;;5027477;28;20130;-76
2022/12/01 03:47:13;;;;;;;96.35;40.90;;;5.50;99.90;;;;;;5036143;28;20127;-75
2022/12/01 03:49:39;;;;;;;93.90;39.80;;;5.50;99.90;;;;;;5019943;28;20041;-75
2022/12/01 03:52:23;;;;;;;100.75;39.72;;;5.50;99.90;;;;;;5021159;28;20073;-75
2022/12/01 03:55:28;;;;;;;104.60;40.33;;;5.50;99.90;;;;;;5036653;28;20424;-76
2022/12/01 03:58:27;;;;;;;98.93;41.55;;;5.50;99.90;;;;;;5002228;28;20060;-74
2022/12/01 04:00:56;;;;;;;106.40;39.58;;;5.50;99.90;;;;;;5042106;28;20088;-76
2022/12/01 04:03:24;;;;;;;98.63;39.80;;;5.50;99.90;;;;;;5023315;28;20528;-75
2022/12/01 04:05:50;;;;;;;96.53;40.85;;;5.40;99.90;;;;;;5043962;28;20383;-75
2022/12/01 04:08:16;;;;;;;97.13;40.75;;;5.50;99.90;;;;;;5009752;28;20429;-76
2022/12/01 04:10:42;;;;;;;96.07;41.40;;;5.50;99.90;;;;;;5031187;28;20044;-75
2022/12/01 04:13:15;;;;;;;104.13;41.25;;;5.50;99.90;;;;;;5009118;28;20051;-75
2022/12/01 04:15:42;;;;;;;95.10;40.00;;;5.50;99.90;;;;;;5009623;28;20049;-75
2022/12/01 04:18:07;;;;;;;92.22;38.53;;;5.50;99.90;;;;;;5011992;28;20115;-75
2022/12/01 04:20:33;;;;;;;93.05;38.80;;;5.50;99.90;;;;;;5028612;28;20152;-76
2022/12/01 04:22:59;;;;;;;93.28;38.92;;;5.50;99.90;;;;;;5011648;28;20049;-75
2022/12/01 04:25:24;;;;;;;90.38;39.20;;;5.50;99.90;;;;;;5030393;28;20091;-72
2022/12/01 04:27:50;;;;;;;92.20;38.95;;;5.50;99.90;;;;;;5029157;28;20049;-71
2022/12/01 04:30:16;;;;;;;96.15;38.65;;;5.60;99.90;;;;;;5042219;28;20076;-71
2022/12/01 04:32:43;;;;;;;89.53;37.83;;;5.50;99.90;;;;;;5022279;28;20045;-71
2022/12/01 04:35:11;;;;;;;89.80;39.97;;;5.50;99.90;;;;;;5023710;28;20048;-72
2022/12/01 04:37:37;;;;;;;90.90;38.38;;;5.50;99.90;;;;;;5025994;28;20079;-71
2022/12/01 04:40:04;;;;;;;92.40;39.85;;;5.50;99.90;;;;;;5039090;28;20513;-71
2022/12/01 04:42:30;;;;;;;92.15;39.95;;;5.50;99.90;;;;;;5042781;28;20041;-70
2022/12/01 04:44:56;;;;;;;96.15;39.22;;;5.50;99.90;;;;;;5022247;28;20418;-71
2022/12/01 04:47:22;;;;;;;99.18;38.95;;;5.50;99.90;;;;;;5001325;28;20065;-71
2022/12/01 04:49:48;;;;;;;87.45;38.55;;;5.50;99.90;;;;;;5020523;28;20570;-71
2022/12/01 04:52:14;;;;;;;96.82;40.55;;;5.50;99.90;;;;;;5002688;28;20114;-71
2022/12/01 04:54:40;;;;;;;95.95;38.38;;;5.50;99.90;;;;;;5015436;28;20522;-71
2022/12/01 04:57:06;;;;;;;89.63;37.70;;;5.50;99.90;;;;;;5011822;28;20182;-71
2022/12/01 04:59:31;;;;;;;92.90;37.85;;;5.50;99.90;;;;;;5013539;28;20124;-71
2022/12/01 05:02:01;;;;;;;96.53;39.40;;;5.50;99.90;;;;;;5008385;28;21769;-72
2022/12/01 05:04:27;;;;;;;97.05;40.05;;;5.50;99.90;;;;;;5008655;28;20053;-73
2022/12/01 05:06:54;;;;;;;92.07;38.10;;;5.50;99.90;;;;;;5027262;28;20049;-71
2022/12/01 05:09:20;;;;;;;92.70;39.92;;;5.50;99.90;;;;;;5009108;28;20544;-71
2022/12/01 05:11:45;;;;;;;99.05;39.40;;;5.50;99.90;;;;;;5029666;28;20052;-71
2022/12/01 05:14:11;;;;;;;100.53;41.20;;;5.50;99.90;;;;;;5036151;28;20056;-71
2022/12/01 05:16:37;;;;;;;97.47;38.92;;;5.50;99.90;;;;;;5032810;28;20045;-71
2022/12/01 05:21:50;;;;;;;89.93;36.70;;;5.50;99.90;;;;;;5030864;28;20491;-72
2022/12/01 05:24:16;;;;;;;94.35;37.22;;;5.50;99.90;;;;;;5004341;28;20111;-71
2022/12/01 05:26:43;;;;;;;79.63;36.85;;;5.50;99.90;;;;;;5005527;28;20132;-71
2022/12/01 05:29:10;;;;;;;87.03;37.22;;;5.50;99.90;;;;;;5025528;28;20425;-71
2022/12/01 05:31:36;;;;;;;81.43;37.00;;;5.50;99.90;;;;;;5008144;28;20041;-71
2022/12/01 05:34:02;;;;;;;82.63;37.00;;;5.50;99.90;;;;;;5035646;28;20049;-71
2022/12/01 05:36:27;;;;;;;89.18;38.72;;;5.40;99.90;;;;;;5029746;28;20041;-71
2022/12/01 05:38:53;;;;;;;86.53;37.20;;;5.40;99.90;;;;;;5023395;28;20109;-72
2022/12/01 05:41:19;;;;;;;78.88;35.13;;;5.30;99.90;;;;;;5005568;28;20062;-71
2022/12/01 05:43:45;;;;;;;83.00;35.58;;;5.20;99.90;;;;;;5018067;28;21123;-72
2022/12/01 05:46:11;;;;;;;90.25;37.72;;;5.20;99.90;;;;;;4996198;28;20783;-72
2022/12/01 05:48:37;;;;;;;81.03;35.90;;;5.20;99.90;;;;;;5009348;28;20133;-72
2022/12/01 05:51:11;;;;;;;76.13;34.20;;;5.10;99.90;;;;;;5015420;28;20041;-72
2022/12/01 05:53:37;;;;;;;72.25;32.95;;;5.10;99.90;;;;;;4997520;28;20453;-72
2022/12/01 05:56:04;;;;;;;77.70;34.55;;;5.00;99.90;;;;;;5017579;28;20042;-73
2022/12/01 05:58:30;;;;;;;75.93;32.95;;;5.00;99.90;;;;;;5018319;28;20115;-72
2022/12/01 06:00:58;;;;;;;82.18;33.97;;;5.00;99.90;;;;;;5015656;28;20046;-72
2022/12/01 06:03:24;;;;;;;73.22;33.05;;;4.90;99.90;;;;;;5016861;28;20068;-72
2022/12/01 06:05:50;;;;;;;75.50;34.28;;;4.80;99.90;;;;;;5011732;28;20213;-72
2022/12/01 06:08:16;;;;;;;78.65;33.65;;;4.70;99.90;;;;;;4994978;28;20053;-72
2022/12/01 06:10:45;;;;;;;74.90;34.28;;;4.80;99.90;;;;;;5002449;28;20904;-72
2022/12/01 06:13:11;;;;;;;76.20;33.05;;;4.60;99.90;;;;;;5016044;28;20061;-71
2022/12/01 06:15:36;;;;;;;72.35;33.38;;;4.60;99.90;;;;;;5016638;28;20049;-72
2022/12/01 06:18:02;;;;;;;73.03;32.33;;;4.50;99.90;;;;;;5021290;28;20072;-72
2022/12/01 06:20:28;;;;;;;73.88;31.90;;;4.50;99.90;;;;;;5020528;28;20045;-72
2022/12/01 06:22:54;;;;;;;71.07;30.50;;;4.40;99.90;;;;;;5020232;28;20042;-72
2022/12/01 06:25:19;;;;;;;70.43;31.55;;;4.40;99.90;;;;;;5021206;28;20116;-72
2022/12/01 06:27:45;;;;;;;67.00;29.25;;;4.30;99.90;;;;;;5022896;28;20046;-72
2022/12/01 06:30:11;;;;;;;69.18;29.48;;;4.30;99.90;;;;;;5004311;28;20041;-72
2022/12/01 06:32:37;;;;;;;68.10;30.50;;;4.20;99.90;;;;;;5020295;28;20038;-72
2022/12/01 06:35:03;;;;;;;70.00;31.15;;;4.20;99.90;;;;;;5018443;28;20046;-72
2022/12/01 06:37:29;;;;;;;79.63;32.63;;;4.20;99.90;;;;;;5022128;28;20038;-72
2022/12/01 06:39:54;;;;;;;68.30;30.58;;;4.10;99.90;;;;;;5021740;28;20041;-72
2022/12/01 06:42:20;;;;;;;69.45;30.83;;;4.10;99.90;;;;;;5008155;28;20033;-72
2022/12/01 06:44:45;;;;;;;63.70;30.35;;;4.00;99.90;;;;;;5007584;28;20056;-73
2022/12/01 06:47:11;;;;;;;64.65;28.27;;;4.00;99.90;;;;;;5028854;28;20199;-72
2022/12/01 06:49:37;;;;;;;67.85;29.48;;;4.00;99.90;;;;;;5021530;28;20513;-72
2022/12/01 06:52:04;;;;;;;67.63;28.50;;;3.90;99.90;;;;;;5022002;28;20056;-72
2022/12/01 06:54:29;;;;;;;63.83;28.17;;;3.90;99.90;;;;;;5009028;28;20500;-73
2022/12/01 06:56:55;;;;;;;65.88;29.42;;;3.80;99.90;;;;;;5007518;28;20211;-72
2022/12/01 06:59:21;;;;;;;66.00;27.85;;;3.80;99.90;;;;;;5028835;28;20525;-72
2022/12/01 07:01:46;;;;;;;60.55;26.60;;;3.70;99.90;;;;;;5008046;28;20758;-72
2022/12/01 07:04:12;;;;;;;65.93;28.63;;;3.70;99.90;;;;;;5019035;28;20530;-72
2022/12/01 07:06:38;;;;;;;71.57;30.27;;;3.70;99.90;;;;;;5002525;28;20507;-72
2022/12/01 07:09:03;;;;;;;67.20;27.98;;;3.60;99.90;;;;;;5024300;28;20045;-72
2022/12/01 07:11:31;;;;;;;66.97;28.27;;;3.60;99.90;;;;;;5009840;28;20053;-72
2022/12/01 07:13:57;;;;;;;70.07;29.05;;;3.70;99.90;;;;;;5021836;28;20057;-72
2022/12/01 07:16:22;;;;;;;61.75;27.48;;;3.50;99.90;;;;;;5013265;28;20044;-72
2022/12/01 07:18:48;;;;;;;66.32;28.95;;;3.40;99.90;;;;;;5018354;28;20492;-73
2022/12/01 07:21:14;;;;;;;61.47;26.15;;;3.40;99.90;;;;;;5021209;28;20042;-72
2022/12/01 07:23:41;;;;;;;62.88;27.02;;;3.30;99.90;;;;;;5018830;28;20045;-72
2022/12/01 07:26:10;;;;;;;49.35;23.35;;;3.30;99.90;;;;;;5019927;28;20049;-72
2022/12/01 07:28:36;;;;;;;50.95;24.25;;;3.30;99.90;;;;;;5015615;28;20499;-72
2022/12/01 07:31:08;;;;;;;52.20;23.92;;;3.30;99.90;;;;;;5024067;28;20049;-72
2022/12/01 07:33:34;;;;;;;53.42;23.52;;;3.30;99.90;;;;;;5019818;28;20042;-72
2022/12/01 07:36:00;;;;;;;49.92;23.02;;;3.90;99.90;;;;;;5024911;28;20100;-73
2022/12/01 07:38:30;;;;;;;44.80;22.60;;;3.30;99.90;;;;;;5001385;28;20042;-72
2022/12/01 07:41:10;;;;;;;45.17;21.48;;;3.70;99.90;;;;;;5017113;28;20099;-71
2022/12/01 07:43:37;;;;;;;44.70;21.63;;;3.20;99.90;;;;;;5020639;28;20589;-71
2022/12/01 07:46:16;;;;;;;41.70;20.98;;;3.20;99.90;;;;;;5017721;28;20544;-72
2022/12/01 07:48:42;;;;;;;44.58;20.38;;;3.20;99.90;;;;;;4993535;28;20695;-72
2022/12/01 07:51:11;;;;;;;42.03;20.38;;;3.20;99.90;;;;;;5013064;28;20041;-72
2022/12/01 07:53:38;;;;;;;44.03;19.95;;;3.20;99.90;;;;;;5019743;28;20053;-72
2022/12/01 07:56:04;;;;;;;40.88;20.05;;;3.20;99.90;;;;;;5016453;28;20075;-72
2022/12/01 07:58:31;;;;;;;39.90;19.02;;;3.10;99.90;;;;;;5017869;28;20073;-72
2022/12/01 08:00:57;;;;;;;37.83;18.88;;;3.20;99.90;;;;;;5017858;28;20056;-73
2022/12/01 08:03:23;;;;;;;36.17;18.35;;;3.10;99.90;;;;;;5012136;28;20037;-73
2022/12/01 08:05:58;;;;;;;36.13;18.48;;;3.10;99.90;;;;;;5008695;28;20044;-73
2022/12/01 08:08:25;;;;;;;34.75;17.48;;;3.10;99.90;;;;;;5017990;28;20088;-73
2022/12/01 08:10:51;;;;;;;34.97;17.40;;;3.10;99.90;;;;;;5013520;28;20535;-71
2022/12/01 08:13:18;;;;;;;33.75;17.25;;;3.10;99.90;;;;;;5005099;28;20038;-72
2022/12/01 08:15:43;;;;;;;35.53;17.50;;;3.10;99.90;;;;;;5002205;28;20055;-71
2022/12/01 08:18:09;;;;;;;29.85;15.35;;;3.10;99.90;;;;;;5015635;28;20052;-71
2022/12/01 08:20:35;;;;;;;27.45;14.73;;;2.40;99.90;;;;;;5011530;28;20044;-71
2022/12/01 08:23:01;;;;;;;28.58;15.52;;;3.00;99.90;;;;;;5013868;28;20042;-71
2022/12/01 08:25:28;;;;;;;33.67;15.85;;;3.30;99.90;;;;;;5004400;28;20092;-72
2022/12/01 08:27:54;;;;;;;32.33;15.68;;;3.00;99.90;;;;;;5008489;28;20061;-72
2022/12/01 08:30:20;;;;;;;29.75;15.25;;;3.00;99.90;;;;;;5016585;28;20457;-72
2022/12/01 08:32:46;;;;;;;32.53;15.40;;;3.10;99.90;;;;;;4996195;28;20541;-72
2022/12/01 08:35:11;;;;;;;30.77;15.32;;;3.10;99.90;;;;;;5010878;28;20042;-72
2022/12/01 08:37:37;;;;;;;31.25;16.27;;;3.10;99.90;;;;;;5010463;28;20042;-72
2022/12/01 08:40:03;;;;;;;31.80;14.10;;;3.20;99.90;;;;;;5007150;28;20073;-73
2022/12/01 08:42:29;;;;;;;28.42;14.65;;;3.00;99.90;;;;;;5011104;28;20402;-73
2022/12/01 08:44:54;;;;;;;26.20;13.77;;;3.00;99.90;;;;;;5001406;28;20041;-72
2022/12/01 08:47:20;;;;;;;30.40;15.30;;;3.00;99.90;;;;;;5027948;28;20073;-72
2022/12/01 08:49:46;;;;;;;28.25;13.93;;;3.10;99.90;;;;;;5011369;28;20049;-72
2022/12/01 08:52:12;;;;;;;30.92;15.45;;;3.20;99.90;;;;;;5032273;28;20033;-72
2022/12/01 08:54:37;;;;;;;25.17;14.05;;;3.00;99.90;;;;;;5007254;28;20052;-72
2022/12/01 08:57:03;;;;;;;26.85;13.80;;;3.10;99.90;;;;;;5033371;28;20045;-73
2022/12/01 08:59:29;;;;;;;26.55;14.23;;;3.50;99.90;;;;;;5029291;28;20120;-72
2022/12/01 09:01:56;;;;;;;25.48;13.20;;;3.10;99.90;;;;;;5013454;28;20361;-72
2022/12/01 09:04:24;;;;;;;27.83;14.52;;;3.10;99.90;;;;;;5005384;28;20132;-71
2022/12/01 09:06:52;;;;;;;27.73;12.50;;;3.10;99.90;;;;;;4999821;28;20179;-71
2022/12/01 09:09:27;;;;;;;23.85;12.85;;;3.50;99.90;;;;;;5032711;28;20301;-71
2022/12/01 09:11:53;;;;;;;25.95;13.98;;;3.20;99.90;;;;;;5021041;28;20087;-71
2022/12/01 09:14:20;;;;;;;25.83;13.35;;;3.20;99.90;;;;;;5013690;28;20034;-71
2022/12/01 09:16:48;;;;;;;27.50;14.32;;;3.80;99.90;;;;;;5019482;28;20989;-71
2022/12/01 09:19:15;;;;;;;28.38;14.00;;;3.40;99.90;;;;;;5032909;28;20080;-71
2022/12/01 09:21:42;;;;;;;30.95;15.02;;;3.30;99.90;;;;;;5014001;28;20045;-71
2022/12/01 09:24:13;;;;;;;29.65;15.13;;;3.40;99.90;;;;;;5030188;28;20124;-72
2022/12/01 09:26:39;;;;;;;29.00;14.68;;;3.50;99.90;;;;;;5019033;28;20103;-72
2022/12/01 09:29:07;;;;;;;25.33;14.00;;;3.50;99.90;;;;;;5007477;28;20469;-71
2022/12/01 09:31:34;;;;;;;29.15;14.43;;;3.60;99.90;;;;;;5019609;28;20089;-75
2022/12/01 09:34:03;;;;;;;28.67;15.85;;;3.60;99.90;;;;;;5033533;28;20045;-75
2022/12/01 09:36:30;;;;;;;29.63;15.13;;;3.60;99.90;;;;;;5019592;28;20124;-75
2022/12/01 09:38:56;;;;;;;28.48;14.85;;;3.70;99.90;;;;;;5015997;28;20052;-75
2022/12/01 09:41:31;;;;;;;33.28;17.08;;;3.70;99.90;;;;;;5030257;28;20742;-75
2022/12/01 09:44:13;;;;;;;31.00;15.43;;;3.90;99.90;;;;;;5028316;28;20130;-75
2022/12/01 09:46:41;;;;;;;;;;;3.90;99.90;;;;;;4985540;28;20046;-74
2022/12/01 09:49:17;;;;;;;28.50;15.07;;;4.00;99.90;;;;;;4991182;28;19929;-74
2022/12/01 09:51:43;;;;;;;32.42;17.00;;;4.00;99.90;;;;;;5013343;28;20415;-75
2022/12/01 09:54:12;;;;;;;29.60;14.40;;;4.20;99.90;;;;;;5012381;28;20046;-75
2022/12/01 09:56:48;;;;;;;31.33;16.27;;;4.20;99.90;;;;;;5008057;28;20068;-75
2022/12/01 09:59:22;;;;;;;31.05;14.88;;;4.20;99.90;;;;;;5007560;28;20054;-75
2022/12/01 10:01:55;;;;;;;30.38;15.45;;;4.30;99.90;;;;;;5006883;28;20088;-76
2022/12/01 10:04:32;;;;;;;30.10;15.50;;;4.30;99.90;;;;;;5009960;28;20045;-76
2022/12/01 10:07:24;;;;;;;34.40;15.95;;;4.50;99.90;;;;;;4994197;28;20085;-75
2022/12/01 10:10:15;;;;;;;32.65;16.63;;;4.90;99.90;;;;;;5014844;28;20049;-75
2022/12/01 10:12:42;;;;;;;33.20;17.60;;;4.60;99.90;;;;;;5018282;28;20054;-74
2022/12/01 10:15:21;;;;;;;32.65;16.35;;;4.70;99.90;;;;;;5012823;28;20300;-74
2022/12/01 10:18:18;;;;;;;29.42;15.07;;;4.70;99.90;;;;;;5008948;28;20157;-75
2022/12/01 10:20:55;;;;;;;31.75;16.70;;;4.80;99.90;;;;;;5005051;28;20518;-75
2022/12/01 10:23:30;;;;;;;32.88;17.00;;;4.80;99.90;;;;;;5009148;28;20049;-74
2022/12/01 10:26:08;;;;;;;31.63;17.10;;;4.90;99.90;;;;;;5013115;28;21320;-74
2022/12/01 10:28:33;;;;;;;35.83;16.38;;;4.90;99.90;;;;;;5014493;28;20041;-73
2022/12/01 10:31:33;;;;;;;27.92;15.90;;;4.90;99.90;;;;;;5013025;28;21133;-74
2022/12/01 10:34:09;;;;;;;34.55;16.52;;;5.00;99.90;;;;;;4998885;28;20701;-74
2022/12/01 10:36:35;;;;;;;34.13;18.83;;;5.00;99.90;;;;;;5011852;28;20052;-75
2022/12/01 10:39:05;;;;;;;32.85;18.08;;;5.20;99.90;;;;;;5013811;28;20053;-74
2022/12/01 10:41:35;;;;;;;36.13;18.80;;;5.10;99.90;;;;;;5017159;28;20498;-73
2022/12/01 10:44:04;;;;;;;39.70;20.15;;;5.20;99.90;;;;;;4995335;28;20049;-75
2022/12/01 10:46:40;;;;;;;38.92;20.77;;;5.20;99.90;;;;;;5016589;28;20510;-74
2022/12/01 10:49:09;;;;;;;36.00;20.40;;;5.30;99.90;;;;;;4991621;28;20077;-75
2022/12/01 10:51:56;;;;;;;38.17;20.60;;;5.50;99.90;;;;;;5010989;28;20114;-75
2022/12/01 10:54:36;;;;;;;39.13;20.92;;;5.40;99.90;;;;;;5006607;28;20045;-72
2022/12/01 10:57:02;;;;;;;38.65;20.23;;;5.40;99.90;;;;;;5003732;28;20477;-72
2022/12/01 10:59:31;;;;;;;36.20;19.75;;;5.50;99.90;;;;;;5014755;28;20479;-73
2022/12/01 11:01:58;;;;;;;36.38;19.75;;;5.50;99.90;;;;;;5001827;28;20061;-72
2022/12/01 11:04:27;;;;;;;39.30;19.75;;;5.50;99.90;;;;;;4998253;28;20518;-71
2022/12/01 11:06:52;;;;;;;36.08;20.88;;;5.60;99.90;;;;;;5011144;28;20077;-71
2022/12/01 11:09:22;;;;;;;39.55;20.38;;;5.60;99.90;;;;;;4995755;28;20125;-71
2022/12/01 11:11:56;;;;;;;42.00;20.65;;;5.70;99.90;;;;;;5020055;28;20038;-71
2022/12/01 11:14:28;;;;;;;37.78;20.77;;;5.70;99.90;;;;;;5013858;28;22004;-71
2022/12/01 11:16:54;;;;;;;36.60;19.58;;;5.70;99.90;;;;;;5017040;28;20518;-71
2022/12/01 11:19:31;;;;;;;38.28;18.80;;;5.70;99.90;;;;;;5010154;28;20052;-71
2022/12/01 11:22:11;;;;;;;34.80;18.25;;;5.80;99.90;;;;;;5011045;28;20129;-71
2022/12/01 11:24:43;;;;;;;37.30;19.60;;;5.80;99.90;;;;;;4989572;28;20101;-74
2022/12/01 11:27:18;;;;;;;36.50;19.30;;;5.80;99.90;;;;;;5012956;28;20042;-73
2022/12/01 11:29:47;;;;;;;36.15;19.20;;;5.90;99.90;;;;;;5003832;28;20045;-72
2022/12/01 11:32:29;;;;;;;35.20;19.45;;;5.80;99.90;;;;;;5032570;28;20049;-71
2022/12/01 11:35:03;;;;;;;41.08;20.35;;;6.00;99.90;;;;;;5029605;28;20091;-70
2022/12/01 11:37:38;;;;;;;42.53;21.17;;;5.90;99.90;;;;;;5022145;28;20118;-71
2022/12/01 11:40:25;;;;;;;38.28;21.40;;;6.00;99.90;;;;;;5014546;28;20075;-71
2022/12/01 11:42:58;;;;;;;41.40;20.60;;;6.10;99.90;;;;;;5018444;28;20056;-71
2022/12/01 11:45:38;;;;;;;42.90;22.08;;;6.10;99.90;;;;;;5017890;28;20045;-71
2022/12/01 11:48:10;;;;;;;43.70;23.17;;;6.10;99.90;;;;;;5007080;28;20297;-71
2022/12/01 11:50:38;;;;;;;44.72;23.23;;;6.10;99.90;;;;;;4993712;28;20068;-71
2022/12/01 11:53:31;;;;;;;39.92;21.92;;;6.20;99.90;;;;;;5020458;28;20104;-72
2022/12/01 11:56:22;;;;;;;49.13;23.95;;;6.10;99.90;;;;;;5026188;28;20049;-72
2022/12/01 11:58:50;;;;;;;46.40;25.40;;;6.20;99.90;;;;;;5043971;28;20040;-72
2022/12/01 12:01:25;;;;;;;47.50;24.83;;;6.20;99.90;;;;;;5025750;28;20056;-72
2022/12/01 12:04:16;;;;;;;48.45;26.02;;;6.20;99.90;;;;;;5019538;28;20441;-72
2022/12/01 12:07:31;;;;;;;50.47;24.88;;;6.20;99.90;;;;;;5027090;28;20080;-72
2022/12/01 12:10:14;;;;;;;47.38;24.60;;;6.20;99.90;;;;;;5033535;28;20053;-75
2022/12/01 12:12:46;;;;;;;46.08;24.65;;;6.20;99.90;;;;;;5031924;28;20040;-74
2022/12/01 12:15:31;;;;;;;42.95;23.13;;;6.20;99.90;;;;;;5006887;28;20053;-74
2022/12/01 12:18:21;;;;;;;47.58;24.77;;;6.20;99.90;;;;;;5011975;28;20131;-74
2022/12/01 12:21:07;;;;;;;50.25;23.88;;;6.30;99.90;;;;;;5019172;28;20809;-73
2022/12/01 12:23:33;;;;;;;49.70;24.88;;;6.30;99.90;;;;;;5024082;28;20033;-74
2022/12/01 12:26:21;;;;;;;48.60;25.35;;;6.30;99.90;;;;;;5023685;28;20061;-74
2022/12/01 12:28:53;;;;;;;45.35;24.42;;;6.30;99.90;;;;;;5037223;28;20042;-74
2022/12/01 12:31:26;;;;;;;47.10;24.35;;;6.30;99.90;;;;;;5022194;28;20556;-74
2022/12/01 12:34:22;;;;;;;45.03;23.60;;;6.50;99.90;;;;;;5030633;28;20049;-73
2022/12/01 12:37:03;;;;;;;45.75;24.90;;;6.30;99.90;;;;;;5007306;28;20068;-74
2022/12/01 12:39:55;;;;;;;51.42;26.63;;;6.40;99.90;;;;;;5003354;28;20102;-74
2022/12/01 12:42:58;;;;;;;40.20;23.50;;;6.40;99.90;;;;;;5018908;28;20075;-74
2022/12/01 12:45:28;;;;;;;48.88;24.90;;;6.40;99.90;;;;;;5030643;28;20042;-75
2022/12/01 12:48:12;;;;;;;44.72;24.33;;;6.40;99.90;;;;;;5022697;28;20485;-74
2022/12/01 12:50:50;;;;;;;46.47;24.60;;;6.40;99.90;;;;;;5023893;28;20037;-75
2022/12/01 12:53:24;;;;;;;48.70;24.95;;;6.40;99.90;;;;;;5005607;28;20387;-74
2022/12/01 12:55:55;;;;;;;49.25;25.63;;;6.40;99.90;;;;;;5020805;28;20045;-74
2022/12/01 12:58:53;;;;;;;49.13;24.52;;;6.40;99.90;;;;;;5008941;28;20053;-74